sensor_id;sensor_type;location;lat;lon;timestamp;P1;durP1;ratioP1;P2;durP2;ratioP2
9827;SDS011;4953;48.952;9.442;2023-01-15T05:00:40;3.27;;;0.80;;
9827;SDS011;4953;48.952;9.442;2023-01-15T05:03:07;0.70;;;0.70;;
9827;SDS011;4953;48.952;9.442;2023-01-15T05:05:34;0.80;;;0.77;;
9827;SDS011;4953;48.952;9.442;2023-01-15T05:08:00;0.93;;;0.70;;
9827;SDS011;4953;48.952;9.442;2023-01-15T05:10:27;2.60;;;1.27;;
9827;SDS011;4953;48.952;9.442;2023-01-15T05:12:54;0.80;;;0.80;;
9827;SDS011;4953;48.952;9.442;2023-01-15T05:15:21;0.90;;;0.73;;
9827;SDS011;4953;48.952;9.442;2023-01-15T05:17:49;1.33;;;0.80;;
9827;SDS011;4953;48.952;9.442;2023-01-15T05:20:16;0.83;;;0.80;;
9827;SDS011;4953;48.952;9.442;2023-01-15T05:22:43;1.33;;;0.80;;
9827;SDS011;4953;48.952;9.442;2023-01-15T05:25:09;0.70;;;0.70;;
9827;SDS011;4953;48.952;9.442;2023-01-15T05:27:36;0.80;;;0.80;;
9827;SDS011;4953;48.952;9.442;2023-01-15T05:30:03;0.60;;;0.60;;
9827;SDS011;4953;48.952;9.442;2023-01-15T05:32:31;0.77;;;0.77;;
9827;SDS011;4953;48.952;9.442;2023-01-15T05:34:59;0.70;;;0.70;;
9827;SDS011;4953;48.952;9.442;2023-01-15T05:37:28;0.70;;;0.70;;
9827;SDS011;4953;48.952;9.442;2023-01-15T05:39:55;1.23;;;0.87;;
9827;SDS011;4953;48.952;9.442;2023-01-15T05:42:22;0.80;;;0.80;;
9827;SDS011;4953;48.952;9.442;2023-01-15T05:44:48;0.77;;;0.77;;
9827;SDS011;4953;48.952;9.442;2023-01-15T05:47:15;2.77;;;0.90;;
9827;SDS011;4953;48.952;9.442;2023-01-15T05:49:42;0.80;;;0.80;;
9827;SDS011;4953;48.952;9.442;2023-01-15T05:52:10;0.90;;;0.80;;
9827;SDS011;4953;48.952;9.442;2023-01-15T05:54:37;0.80;;;0.80;;
9827;SDS011;4953;48.952;9.442;2023-01-15T05:57:03;0.70;;;0.70;;
9827;SDS011;4953;48.952;9.442;2023-01-15T05:59:31;0.97;;;0.80;;
9827;SDS011;4953;48.952;9.442;2023-01-15T06:01:58;0.60;;;0.60;;
9827;SDS011;4953;48.952;9.442;2023-01-15T06:04:25;0.70;;;0.70;;
9827;SDS011;4953;48.952;9.442;2023-01-15T06:06:53;0.70;;;0.70;;
9827;SDS011;4953;48.952;9.442;2023-01-15T06:09:22;0.90;;;0.80;;
9827;SDS011;4953;48.952;9.442;2023-01-15T06:11:51;0.73;;;0.73;;
9827;SDS011;4953;48.952;9.442;2023-01-15T06:14:19;1.43;;;0.97;;
9827;SDS011;4953;48.952;9.442;2023-01-15T06:16:46;1.00;;;0.70;;
9827;SDS011;4953;48.952;9.442;2023-01-15T06:19:13;0.80;;;0.80;;
9827;SDS011;4953;48.952;9.442;2023-01-15T06:21:40;0.60;;;0.60;;
9827;SDS011;4953;48.952;9.442;2023-01-15T06:24:07;0.80;;;0.80;;
9827;SDS011;4953;48.952;9.442;2023-01-15T06:26:36;0.70;;;0.70;;
9827;SDS011;4953;48.952;9.442;2023-01-15T06:29:03;1.20;;;1.10;;
9827;SDS011;4953;48.952;9.442;2023-01-15T06:31:30;1.00;;;1.00;;
9827;SDS011;4953;48.952;9.442;2023-01-15T06:33:56;2.00;;;1.30;;
9827;SDS011;4953;48.952;9.442;2023-01-15T06:36:24;2.20;;;1.00;;
9827;SDS011;4953;48.952;9.442;2023-01-15T06:38:51;0.90;;;0.90;;
9827;SDS011;4953;48.952;9.442;2023-01-15T06:41:19;1.57;;;0.80;;
9827;SDS011;4953;48.952;9.442;2023-01-15T06:44:06;0.97;;;0.93;;
9827;SDS011;4953;48.952;9.442;2023-01-15T06:46:54;1.70;;;0.80;;
9827;SDS011;4953;48.952;9.442;2023-01-15T06:49:38;0.90;;;0.90;;
9827;SDS011;4953;48.952;9.442;2023-01-15T06:52:05;1.73;;;0.93;;
9827;SDS011;4953;48.952;9.442;2023-01-15T06:54:32;1.20;;;1.10;;
9827;SDS011;4953;48.952;9.442;2023-01-15T06:56:59;1.53;;;1.43;;
9827;SDS011;4953;48.952;9.442;2023-01-15T06:59:27;3.47;;;2.00;;
9827;SDS011;4953;48.952;9.442;2023-01-15T07:01:54;2.10;;;1.43;;
9827;SDS011;4953;48.952;9.442;2023-01-15T07:04:21;1.40;;;1.30;;
9827;SDS011;4953;48.952;9.442;2023-01-15T07:06:48;1.23;;;1.10;;
9827;SDS011;4953;48.952;9.442;2023-01-15T07:09:14;0.93;;;0.93;;
9827;SDS011;4953;48.952;9.442;2023-01-15T07:11:41;0.90;;;0.90;;
9827;SDS011;4953;48.952;9.442;2023-01-15T07:14:14;1.10;;;1.10;;
9827;SDS011;4953;48.952;9.442;2023-01-15T07:16:43;0.87;;;0.87;;
9827;SDS011;4953;48.952;9.442;2023-01-15T07:19:10;0.80;;;0.80;;
9827;SDS011;4953;48.952;9.442;2023-01-15T07:21:37;0.80;;;0.80;;
9827;SDS011;4953;48.952;9.442;2023-01-15T07:24:04;0.90;;;0.90;;
9827;SDS011;4953;48.952;9.442;2023-01-15T07:26:31;0.97;;;0.97;;
9827;SDS011;4953;48.952;9.442;2023-01-15T07:28:58;0.70;;;0.70;;
9827;SDS011;4953;48.952;9.442;2023-01-15T07:31:25;2.10;;;1.00;;
9827;SDS011;4953;48.952;9.442;2023-01-15T07:33:54;1.27;;;1.00;;
9827;SDS011;4953;48.952;9.442;2023-01-15T07:36:21;1.00;;;1.00;;
9827;SDS011;4953;48.952;9.442;2023-01-15T07:38:47;1.33;;;1.00;;
9827;SDS011;4953;48.952;9.442;2023-01-15T07:41:14;0.90;;;0.90;;
9827;SDS011;4953;48.952;9.442;2023-01-15T07:43:59;1.10;;;1.10;;
9827;SDS011;4953;48.952;9.442;2023-01-15T07:46:43;1.23;;;1.00;;
9827;SDS011;4953;48.952;9.442;2023-01-15T07:49:28;4.23;;;1.20;;
9827;SDS011;4953;48.952;9.442;2023-01-15T07:52:14;2.80;;;1.80;;
9827;SDS011;4953;48.952;9.442;2023-01-15T07:54:42;3.67;;;2.30;;
9827;SDS011;4953;48.952;9.442;2023-01-15T07:57:09;2.90;;;2.00;;
9827;SDS011;4953;48.952;9.442;2023-01-15T07:59:37;1.30;;;1.20;;
9827;SDS011;4953;48.952;9.442;2023-01-15T08:02:04;2.67;;;1.30;;
9827;SDS011;4953;48.952;9.442;2023-01-15T08:04:33;1.90;;;1.80;;
9827;SDS011;4953;48.952;9.442;2023-01-15T08:07:01;1.80;;;1.50;;
9827;SDS011;4953;48.952;9.442;2023-01-15T08:09:28;1.10;;;1.10;;
9827;SDS011;4953;48.952;9.442;2023-01-15T08:11:57;1.00;;;1.00;;
9827;SDS011;4953;48.952;9.442;2023-01-15T08:14:42;1.50;;;1.40;;
9827;SDS011;4953;48.952;9.442;2023-01-15T08:17:26;1.47;;;1.37;;
9827;SDS011;4953;48.952;9.442;2023-01-15T08:19:54;1.30;;;1.30;;
9827;SDS011;4953;48.952;9.442;2023-01-15T08:22:21;1.60;;;1.50;;
9827;SDS011;4953;48.952;9.442;2023-01-15T08:24:47;1.83;;;1.50;;
9827;SDS011;4953;48.952;9.442;2023-01-15T08:27:17;1.40;;;1.30;;
9827;SDS011;4953;48.952;9.442;2023-01-15T08:29:44;1.27;;;1.07;;
9827;SDS011;4953;48.952;9.442;2023-01-15T08:32:10;1.20;;;1.10;;
9827;SDS011;4953;48.952;9.442;2023-01-15T08:34:37;1.20;;;1.20;;
9827;SDS011;4953;48.952;9.442;2023-01-15T08:37:05;1.20;;;1.10;;
9827;SDS011;4953;48.952;9.442;2023-01-15T08:39:32;1.43;;;1.20;;
9827;SDS011;4953;48.952;9.442;2023-01-15T08:41:59;1.53;;;1.43;;
9827;SDS011;4953;48.952;9.442;2023-01-15T08:44:26;1.40;;;1.30;;
9827;SDS011;4953;48.952;9.442;2023-01-15T08:46:53;1.77;;;1.40;;
9827;SDS011;4953;48.952;9.442;2023-01-15T08:49:20;1.40;;;1.30;;
9827;SDS011;4953;48.952;9.442;2023-01-15T08:51:47;1.30;;;1.20;;
9827;SDS011;4953;48.952;9.442;2023-01-15T08:54:17;1.27;;;1.17;;
9827;SDS011;4953;48.952;9.442;2023-01-15T08:56:45;1.77;;;1.67;;
9827;SDS011;4953;48.952;9.442;2023-01-15T08:59:13;1.80;;;1.70;;
9827;SDS011;4953;48.952;9.442;2023-01-15T09:01:40;1.50;;;1.40;;
9827;SDS011;4953;48.952;9.442;2023-01-15T09:04:08;1.50;;;1.40;;
9827;SDS011;4953;48.952;9.442;2023-01-15T09:06:38;1.60;;;1.50;;
9827;SDS011;4953;48.952;9.442;2023-01-15T09:09:05;1.17;;;1.10;;
9827;SDS011;4953;48.952;9.442;2023-01-15T09:11:33;1.17;;;1.07;;
9827;SDS011;4953;48.952;9.442;2023-01-15T09:14:00;1.07;;;1.00;;
9827;SDS011;4953;48.952;9.442;2023-01-15T09:16:27;0.90;;;0.90;;
9827;SDS011;4953;48.952;9.442;2023-01-15T09:18:55;1.10;;;0.97;;
9827;SDS011;4953;48.952;9.442;2023-01-15T09:21:22;1.20;;;1.10;;
9827;SDS011;4953;48.952;9.442;2023-01-15T09:23:49;1.30;;;0.93;;
9827;SDS011;4953;48.952;9.442;2023-01-15T09:26:20;1.10;;;1.10;;
9827;SDS011;4953;48.952;9.442;2023-01-15T09:28:53;1.53;;;1.03;;
9827;SDS011;4953;48.952;9.442;2023-01-15T09:31:20;2.50;;;1.20;;
9827;SDS011;4953;48.952;9.442;2023-01-15T09:33:47;1.13;;;1.10;;
9827;SDS011;4953;48.952;9.442;2023-01-15T09:36:14;1.43;;;1.13;;
9827;SDS011;4953;48.952;9.442;2023-01-15T09:38:42;1.10;;;1.00;;
9827;SDS011;4953;48.952;9.442;2023-01-15T09:41:09;1.37;;;1.07;;
9827;SDS011;4953;48.952;9.442;2023-01-15T09:44:01;0.93;;;0.90;;
9827;SDS011;4953;48.952;9.442;2023-01-15T09:46:38;1.27;;;1.17;;
9827;SDS011;4953;48.952;9.442;2023-01-15T09:49:14;0.90;;;0.90;;
9827;SDS011;4953;48.952;9.442;2023-01-15T09:51:51;1.83;;;1.00;;
9827;SDS011;4953;48.952;9.442;2023-01-15T09:54:30;1.23;;;1.13;;
9827;SDS011;4953;48.952;9.442;2023-01-15T09:57:09;1.50;;;1.40;;
9827;SDS011;4953;48.952;9.442;2023-01-15T09:59:39;1.10;;;1.00;;
9827;SDS011;4953;48.952;9.442;2023-01-15T10:02:14;1.00;;;1.00;;
9827;SDS011;4953;48.952;9.442;2023-01-15T10:04:47;1.00;;;0.97;;
9827;SDS011;4953;48.952;9.442;2023-01-15T10:07:17;1.10;;;1.10;;
9827;SDS011;4953;48.952;9.442;2023-01-15T10:09:50;1.30;;;1.20;;
9827;SDS011;4953;48.952;9.442;2023-01-15T10:12:23;0.90;;;0.90;;
9827;SDS011;4953;48.952;9.442;2023-01-15T10:15:15;1.10;;;1.10;;
9827;SDS011;4953;48.952;9.442;2023-01-15T10:17:48;1.07;;;1.00;;
9827;SDS011;4953;48.952;9.442;2023-01-15T10:20:22;1.10;;;1.10;;
9827;SDS011;4953;48.952;9.442;2023-01-15T10:23:07;2.33;;;1.50;;
9827;SDS011;4953;48.952;9.442;2023-01-15T10:25:41;1.27;;;1.03;;
9827;SDS011;4953;48.952;9.442;2023-01-15T10:28:16;1.43;;;1.20;;
9827;SDS011;4953;48.952;9.442;2023-01-15T10:30:49;1.20;;;1.07;;
9827;SDS011;4953;48.952;9.442;2023-01-15T10:33:24;1.50;;;1.20;;
9827;SDS011;4953;48.952;9.442;2023-01-15T10:36:02;1.00;;;1.00;;
9827;SDS011;4953;48.952;9.442;2023-01-15T10:38:36;1.07;;;1.07;;
9827;SDS011;4953;48.952;9.442;2023-01-15T10:41:13;1.63;;;1.13;;
9827;SDS011;4953;48.952;9.442;2023-01-15T10:44:02;1.53;;;1.43;;
9827;SDS011;4953;48.952;9.442;2023-01-15T10:46:36;1.30;;;1.20;;
9827;SDS011;4953;48.952;9.442;2023-01-15T10:49:10;1.10;;;1.10;;
9827;SDS011;4953;48.952;9.442;2023-01-15T10:51:40;1.60;;;1.50;;
9827;SDS011;4953;48.952;9.442;2023-01-15T10:54:11;2.90;;;1.50;;
9827;SDS011;4953;48.952;9.442;2023-01-15T10:56:45;1.80;;;1.70;;
9827;SDS011;4953;48.952;9.442;2023-01-15T10:59:17;2.40;;;1.10;;
9827;SDS011;4953;48.952;9.442;2023-01-15T11:01:49;1.43;;;1.30;;
9827;SDS011;4953;48.952;9.442;2023-01-15T11:04:19;7.73;;;1.43;;
9827;SDS011;4953;48.952;9.442;2023-01-15T11:06:46;1.03;;;1.03;;
9827;SDS011;4953;48.952;9.442;2023-01-15T11:09:16;1.30;;;1.20;;
9827;SDS011;4953;48.952;9.442;2023-01-15T11:11:47;1.10;;;1.10;;
9827;SDS011;4953;48.952;9.442;2023-01-15T11:14:34;1.10;;;1.07;;
9827;SDS011;4953;48.952;9.442;2023-01-15T11:17:21;1.00;;;1.00;;
9827;SDS011;4953;48.952;9.442;2023-01-15T11:20:20;1.37;;;1.27;;
9827;SDS011;4953;48.952;9.442;2023-01-15T11:22:53;0.97;;;0.97;;
9827;SDS011;4953;48.952;9.442;2023-01-15T11:25:24;0.97;;;0.83;;
9827;SDS011;4953;48.952;9.442;2023-01-15T11:27:53;0.80;;;0.80;;
9827;SDS011;4953;48.952;9.442;2023-01-15T11:30:25;1.03;;;1.03;;
9827;SDS011;4953;48.952;9.442;2023-01-15T11:32:58;4.10;;;1.10;;
9827;SDS011;4953;48.952;9.442;2023-01-15T11:35:28;2.10;;;1.20;;
9827;SDS011;4953;48.952;9.442;2023-01-15T11:38:02;1.00;;;1.00;;
9827;SDS011;4953;48.952;9.442;2023-01-15T11:40:30;2.00;;;1.20;;
9827;SDS011;4953;48.952;9.442;2023-01-15T11:42:57;1.50;;;1.40;;
9827;SDS011;4953;48.952;9.442;2023-01-15T11:45:45;1.37;;;1.00;;
9827;SDS011;4953;48.952;9.442;2023-01-15T11:48:34;1.20;;;1.10;;
9827;SDS011;4953;48.952;9.442;2023-01-15T11:51:26;1.20;;;1.10;;
9827;SDS011;4953;48.952;9.442;2023-01-15T11:53:53;1.10;;;1.00;;
9827;SDS011;4953;48.952;9.442;2023-01-15T11:56:25;1.47;;;1.20;;
9827;SDS011;4953;48.952;9.442;2023-01-15T11:58:55;0.93;;;0.93;;
9827;SDS011;4953;48.952;9.442;2023-01-15T12:01:27;1.07;;;0.97;;
9827;SDS011;4953;48.952;9.442;2023-01-15T12:03:59;1.80;;;1.10;;
9827;SDS011;4953;48.952;9.442;2023-01-15T12:06:26;1.10;;;1.10;;
9827;SDS011;4953;48.952;9.442;2023-01-15T12:08:56;1.30;;;1.20;;
9827;SDS011;4953;48.952;9.442;2023-01-15T12:11:35;3.30;;;1.80;;
9827;SDS011;4953;48.952;9.442;2023-01-15T12:17:28;1.60;;;1.40;;
9827;SDS011;4953;48.952;9.442;2023-01-15T12:20:10;1.57;;;1.47;;
9827;SDS011;4953;48.952;9.442;2023-01-15T12:22:49;1.83;;;1.17;;
9827;SDS011;4953;48.952;9.442;2023-01-15T12:25:32;1.10;;;1.03;;
9827;SDS011;4953;48.952;9.442;2023-01-15T12:28:08;1.10;;;1.10;;
9827;SDS011;4953;48.952;9.442;2023-01-15T12:30:41;1.37;;;1.20;;
9827;SDS011;4953;48.952;9.442;2023-01-15T12:33:21;2.67;;;1.60;;
9827;SDS011;4953;48.952;9.442;2023-01-15T12:35:59;3.03;;;1.80;;
9827;SDS011;4953;48.952;9.442;2023-01-15T12:38:36;4.63;;;1.77;;
9827;SDS011;4953;48.952;9.442;2023-01-15T12:41:12;2.10;;;1.80;;
9827;SDS011;4953;48.952;9.442;2023-01-15T12:43:41;3.40;;;1.60;;
9827;SDS011;4953;48.952;9.442;2023-01-15T12:46:30;2.40;;;1.40;;
9827;SDS011;4953;48.952;9.442;2023-01-15T12:49:00;1.50;;;1.40;;
9827;SDS011;4953;48.952;9.442;2023-01-15T12:51:34;2.40;;;1.43;;
9827;SDS011;4953;48.952;9.442;2023-01-15T12:54:06;1.80;;;1.43;;
9827;SDS011;4953;48.952;9.442;2023-01-15T12:56:41;1.40;;;1.30;;
9827;SDS011;4953;48.952;9.442;2023-01-15T12:59:16;2.13;;;1.53;;
9827;SDS011;4953;48.952;9.442;2023-01-15T13:01:49;2.07;;;1.77;;
9827;SDS011;4953;48.952;9.442;2023-01-15T13:04:21;2.30;;;1.43;;
9827;SDS011;4953;48.952;9.442;2023-01-15T13:06:55;4.40;;;1.60;;
9827;SDS011;4953;48.952;9.442;2023-01-15T13:09:30;2.37;;;2.17;;
9827;SDS011;4953;48.952;9.442;2023-01-15T13:12:07;1.90;;;1.80;;
9827;SDS011;4953;48.952;9.442;2023-01-15T13:14:37;2.07;;;1.70;;
9827;SDS011;4953;48.952;9.442;2023-01-15T13:17:04;3.53;;;1.60;;
9827;SDS011;4953;48.952;9.442;2023-01-15T13:19:42;2.53;;;1.73;;
9827;SDS011;4953;48.952;9.442;2023-01-15T13:22:20;3.77;;;1.70;;
9827;SDS011;4953;48.952;9.442;2023-01-15T13:28:09;2.47;;;2.23;;
9827;SDS011;4953;48.952;9.442;2023-01-15T13:30:50;2.20;;;1.83;;
9827;SDS011;4953;48.952;9.442;2023-01-15T13:33:25;3.70;;;2.83;;
9827;SDS011;4953;48.952;9.442;2023-01-15T13:36:00;4.67;;;2.07;;
9827;SDS011;4953;48.952;9.442;2023-01-15T13:38:36;4.30;;;3.33;;
9827;SDS011;4953;48.952;9.442;2023-01-15T13:41:07;3.60;;;2.40;;
9827;SDS011;4953;48.952;9.442;2023-01-15T13:43:35;5.30;;;3.33;;
9827;SDS011;4953;48.952;9.442;2023-01-15T13:46:04;1.97;;;1.80;;
9827;SDS011;4953;48.952;9.442;2023-01-15T13:48:35;2.03;;;1.90;;
9827;SDS011;4953;48.952;9.442;2023-01-15T13:51:16;1.80;;;1.70;;
9827;SDS011;4953;48.952;9.442;2023-01-15T13:53:53;2.67;;;1.90;;
9827;SDS011;4953;48.952;9.442;2023-01-15T13:56:26;9.70;;;1.97;;
9827;SDS011;4953;48.952;9.442;2023-01-15T13:58:54;1.33;;;1.20;;
9827;SDS011;4953;48.952;9.442;2023-01-15T14:01:24;2.70;;;1.63;;
9827;SDS011;4953;48.952;9.442;2023-01-15T14:04:01;1.60;;;1.33;;
9827;SDS011;4953;48.952;9.442;2023-01-15T14:06:40;1.40;;;1.30;;
9827;SDS011;4953;48.952;9.442;2023-01-15T14:09:24;2.57;;;1.40;;
9827;SDS011;4953;48.952;9.442;2023-01-15T14:11:59;4.73;;;1.27;;
9827;SDS011;4953;48.952;9.442;2023-01-15T14:23:31;3.83;;;1.60;;
9827;SDS011;4953;48.952;9.442;2023-01-15T14:26:21;2.53;;;1.70;;
9827;SDS011;4953;48.952;9.442;2023-01-15T14:29:10;4.40;;;2.07;;
9827;SDS011;4953;48.952;9.442;2023-01-15T14:32:06;2.83;;;1.90;;
9827;SDS011;4953;48.952;9.442;2023-01-15T14:34:39;1.70;;;1.60;;
9827;SDS011;4953;48.952;9.442;2023-01-15T14:37:21;4.30;;;2.30;;
9827;SDS011;4953;48.952;9.442;2023-01-15T14:39:50;3.83;;;2.40;;
9827;SDS011;4953;48.952;9.442;2023-01-15T14:42:24;8.83;;;2.37;;
9827;SDS011;4953;48.952;9.442;2023-01-15T14:45:16;4.23;;;1.97;;
9827;SDS011;4953;48.952;9.442;2023-01-15T14:47:47;1.47;;;1.37;;
9827;SDS011;4953;48.952;9.442;2023-01-15T14:53:13;2.00;;;1.10;;
9827;SDS011;4953;48.952;9.442;2023-01-15T14:55:54;1.80;;;1.30;;
9827;SDS011;4953;48.952;9.442;2023-01-15T14:58:36;1.30;;;1.20;;
9827;SDS011;4953;48.952;9.442;2023-01-15T15:01:12;1.57;;;1.47;;
9827;SDS011;4953;48.952;9.442;2023-01-15T15:03:45;1.70;;;1.60;;
9827;SDS011;4953;48.952;9.442;2023-01-15T15:06:16;15.13;;;2.37;;
9827;SDS011;4953;48.952;9.442;2023-01-15T15:08:43;4.60;;;2.10;;
9827;SDS011;4953;48.952;9.442;2023-01-15T15:11:14;3.73;;;1.80;;
9827;SDS011;4953;48.952;9.442;2023-01-15T15:14:07;2.43;;;1.83;;
9827;SDS011;4953;48.952;9.442;2023-01-15T15:16:39;1.97;;;1.60;;
9827;SDS011;4953;48.952;9.442;2023-01-15T15:19:13;3.17;;;2.00;;
9827;SDS011;4953;48.952;9.442;2023-01-15T15:21:44;4.53;;;2.50;;
9827;SDS011;4953;48.952;9.442;2023-01-15T15:24:15;3.23;;;2.10;;
9827;SDS011;4953;48.952;9.442;2023-01-15T15:26:46;3.70;;;2.43;;
9827;SDS011;4953;48.952;9.442;2023-01-15T15:29:15;5.93;;;2.13;;
9827;SDS011;4953;48.952;9.442;2023-01-15T15:31:44;4.07;;;2.07;;
9827;SDS011;4953;48.952;9.442;2023-01-15T15:34:15;4.50;;;2.00;;
9827;SDS011;4953;48.952;9.442;2023-01-15T15:36:45;2.37;;;1.80;;
9827;SDS011;4953;48.952;9.442;2023-01-15T15:39:15;2.50;;;1.60;;
9827;SDS011;4953;48.952;9.442;2023-01-15T15:41:44;2.93;;;1.97;;
9827;SDS011;4953;48.952;9.442;2023-01-15T15:44:34;3.30;;;1.50;;
9827;SDS011;4953;48.952;9.442;2023-01-15T15:47:22;10.60;;;2.40;;
9827;SDS011;4953;48.952;9.442;2023-01-15T15:50:17;1.87;;;1.73;;
9827;SDS011;4953;48.952;9.442;2023-01-15T15:52:47;4.10;;;2.20;;
9827;SDS011;4953;48.952;9.442;2023-01-15T15:55:14;4.07;;;1.80;;
9827;SDS011;4953;48.952;9.442;2023-01-15T15:57:42;6.67;;;2.40;;
9827;SDS011;4953;48.952;9.442;2023-01-15T16:00:14;1.97;;;1.63;;
9827;SDS011;4953;48.952;9.442;2023-01-15T16:02:44;2.13;;;1.70;;
9827;SDS011;4953;48.952;9.442;2023-01-15T16:05:19;2.43;;;1.50;;
9827;SDS011;4953;48.952;9.442;2023-01-15T16:07:49;4.00;;;1.73;;
9827;SDS011;4953;48.952;9.442;2023-01-15T16:10:17;1.27;;;1.20;;
9827;SDS011;4953;48.952;9.442;2023-01-15T16:12:47;3.43;;;1.70;;
9827;SDS011;4953;48.952;9.442;2023-01-15T16:15:18;2.60;;;1.50;;
9827;SDS011;4953;48.952;9.442;2023-01-15T16:17:47;1.63;;;1.40;;
9827;SDS011;4953;48.952;9.442;2023-01-15T16:20:16;3.90;;;1.50;;
9827;SDS011;4953;48.952;9.442;2023-01-15T16:22:45;4.20;;;1.73;;
9827;SDS011;4953;48.952;9.442;2023-01-15T16:25:20;1.50;;;1.40;;
9827;SDS011;4953;48.952;9.442;2023-01-15T16:27:49;2.50;;;1.67;;
9827;SDS011;4953;48.952;9.442;2023-01-15T16:30:18;3.80;;;2.07;;
9827;SDS011;4953;48.952;9.442;2023-01-15T16:32:45;1.73;;;1.47;;
9827;SDS011;4953;48.952;9.442;2023-01-15T16:35:14;4.13;;;1.60;;
9827;SDS011;4953;48.952;9.442;2023-01-15T16:37:45;2.43;;;1.60;;
9827;SDS011;4953;48.952;9.442;2023-01-15T16:40:15;2.13;;;1.57;;
9827;SDS011;4953;48.952;9.442;2023-01-15T16:42:49;2.77;;;2.43;;
9827;SDS011;4953;48.952;9.442;2023-01-15T16:45:28;2.03;;;1.70;;
9827;SDS011;4953;48.952;9.442;2023-01-15T16:47:59;4.93;;;2.83;;
9827;SDS011;4953;48.952;9.442;2023-01-15T16:50:30;2.80;;;2.47;;
9827;SDS011;4953;48.952;9.442;2023-01-15T16:52:58;2.87;;;2.20;;
9827;SDS011;4953;48.952;9.442;2023-01-15T16:55:39;2.63;;;1.50;;
9827;SDS011;4953;48.952;9.442;2023-01-15T16:58:14;1.90;;;1.60;;
9827;SDS011;4953;48.952;9.442;2023-01-15T17:00:45;3.20;;;1.50;;
9827;SDS011;4953;48.952;9.442;2023-01-15T17:03:14;1.87;;;1.50;;
9827;SDS011;4953;48.952;9.442;2023-01-15T17:05:42;2.87;;;1.67;;
9827;SDS011;4953;48.952;9.442;2023-01-15T17:08:14;2.23;;;2.03;;
9827;SDS011;4953;48.952;9.442;2023-01-15T17:10:50;5.87;;;1.93;;
9827;SDS011;4953;48.952;9.442;2023-01-15T17:13:18;3.60;;;1.93;;
9827;SDS011;4953;48.952;9.442;2023-01-15T17:15:47;3.37;;;1.73;;
9827;SDS011;4953;48.952;9.442;2023-01-15T17:18:27;3.60;;;1.60;;
9827;SDS011;4953;48.952;9.442;2023-01-15T17:20:54;2.50;;;1.80;;
9827;SDS011;4953;48.952;9.442;2023-01-15T17:23:24;2.50;;;1.70;;
9827;SDS011;4953;48.952;9.442;2023-01-15T17:25:53;2.73;;;1.53;;
9827;SDS011;4953;48.952;9.442;2023-01-15T17:28:22;3.00;;;1.70;;
9827;SDS011;4953;48.952;9.442;2023-01-15T17:30:52;2.60;;;1.70;;
9827;SDS011;4953;48.952;9.442;2023-01-15T17:33:24;5.80;;;2.20;;
9827;SDS011;4953;48.952;9.442;2023-01-15T17:35:50;3.20;;;1.53;;
9827;SDS011;4953;48.952;9.442;2023-01-15T17:38:18;2.60;;;1.97;;
9827;SDS011;4953;48.952;9.442;2023-01-15T17:40:45;4.40;;;2.37;;
9827;SDS011;4953;48.952;9.442;2023-01-15T17:43:12;2.10;;;1.90;;
9827;SDS011;4953;48.952;9.442;2023-01-15T17:45:40;5.27;;;2.20;;
9827;SDS011;4953;48.952;9.442;2023-01-15T17:48:09;2.30;;;2.10;;
9827;SDS011;4953;48.952;9.442;2023-01-15T17:50:37;4.80;;;2.10;;
9827;SDS011;4953;48.952;9.442;2023-01-15T17:53:05;3.43;;;1.80;;
9827;SDS011;4953;48.952;9.442;2023-01-15T17:55:32;3.50;;;1.90;;
9827;SDS011;4953;48.952;9.442;2023-01-15T17:58:16;3.83;;;1.90;;
9827;SDS011;4953;48.952;9.442;2023-01-15T18:01:02;2.33;;;1.60;;
9827;SDS011;4953;48.952;9.442;2023-01-15T18:03:54;4.33;;;1.70;;
9827;SDS011;4953;48.952;9.442;2023-01-15T18:06:39;4.30;;;1.67;;
9827;SDS011;4953;48.952;9.442;2023-01-15T18:09:10;2.03;;;1.87;;
9827;SDS011;4953;48.952;9.442;2023-01-15T18:11:37;2.50;;;1.87;;
9827;SDS011;4953;48.952;9.442;2023-01-15T18:14:04;2.70;;;1.70;;
9827;SDS011;4953;48.952;9.442;2023-01-15T18:16:31;1.83;;;1.73;;
9827;SDS011;4953;48.952;9.442;2023-01-15T18:18:59;4.00;;;1.50;;
9827;SDS011;4953;48.952;9.442;2023-01-15T18:21:26;1.53;;;1.40;;
9827;SDS011;4953;48.952;9.442;2023-01-15T18:23:53;3.63;;;1.60;;
9827;SDS011;4953;48.952;9.442;2023-01-15T18:26:19;4.13;;;1.77;;
9827;SDS011;4953;48.952;9.442;2023-01-15T18:28:46;6.53;;;1.87;;
9827;SDS011;4953;48.952;9.442;2023-01-15T18:31:14;2.17;;;1.60;;
9827;SDS011;4953;48.952;9.442;2023-01-15T18:33:41;3.67;;;2.17;;
9827;SDS011;4953;48.952;9.442;2023-01-15T18:36:10;1.87;;;1.60;;
9827;SDS011;4953;48.952;9.442;2023-01-15T18:38:39;1.50;;;1.40;;
9827;SDS011;4953;48.952;9.442;2023-01-15T18:41:09;1.70;;;1.60;;
9827;SDS011;4953;48.952;9.442;2023-01-15T18:43:57;6.50;;;1.90;;
9827;SDS011;4953;48.952;9.442;2023-01-15T18:46:41;4.80;;;1.80;;
9827;SDS011;4953;48.952;9.442;2023-01-15T18:49:08;2.43;;;1.60;;
9827;SDS011;4953;48.952;9.442;2023-01-15T18:51:36;3.33;;;2.07;;
9827;SDS011;4953;48.952;9.442;2023-01-15T18:54:03;3.70;;;1.80;;
9827;SDS011;4953;48.952;9.442;2023-01-15T18:56:30;2.50;;;1.70;;
9827;SDS011;4953;48.952;9.442;2023-01-15T18:59:12;3.20;;;1.90;;
9827;SDS011;4953;48.952;9.442;2023-01-15T19:01:40;4.45;;;1.95;;
9827;SDS011;4953;48.952;9.442;2023-01-15T19:04:07;2.80;;;2.13;;
9827;SDS011;4953;48.952;9.442;2023-01-15T19:06:37;2.97;;;1.90;;
9827;SDS011;4953;48.952;9.442;2023-01-15T19:09:05;4.80;;;1.87;;
9827;SDS011;4953;48.952;9.442;2023-01-15T19:11:32;2.23;;;1.80;;
9827;SDS011;4953;48.952;9.442;2023-01-15T19:14:00;2.80;;;2.13;;
9827;SDS011;4953;48.952;9.442;2023-01-15T19:16:44;2.33;;;2.03;;
9827;SDS011;4953;48.952;9.442;2023-01-15T19:19:28;3.60;;;2.17;;
9827;SDS011;4953;48.952;9.442;2023-01-15T19:21:57;3.50;;;2.60;;
9827;SDS011;4953;48.952;9.442;2023-01-15T19:24:44;7.77;;;3.73;;
9827;SDS011;4953;48.952;9.442;2023-01-15T19:27:11;5.93;;;2.60;;
9827;SDS011;4953;48.952;9.442;2023-01-15T19:29:40;11.33;;;5.20;;
9827;SDS011;4953;48.952;9.442;2023-01-15T19:32:07;4.40;;;3.00;;
9827;SDS011;4953;48.952;9.442;2023-01-15T19:34:34;9.20;;;5.17;;
9827;SDS011;4953;48.952;9.442;2023-01-15T19:37:02;8.57;;;4.00;;
9827;SDS011;4953;48.952;9.442;2023-01-15T19:39:29;23.93;;;4.90;;
9827;SDS011;4953;48.952;9.442;2023-01-15T19:41:57;1.80;;;1.70;;
9827;SDS011;4953;48.952;9.442;2023-01-15T19:44:42;4.70;;;2.13;;
9827;SDS011;4953;48.952;9.442;2023-01-15T19:47:27;3.67;;;2.30;;
9827;SDS011;4953;48.952;9.442;2023-01-15T19:50:15;4.80;;;2.63;;
9827;SDS011;4953;48.952;9.442;2023-01-15T19:52:46;8.47;;;4.80;;
9827;SDS011;4953;48.952;9.442;2023-01-15T19:55:13;5.50;;;2.50;;
9827;SDS011;4953;48.952;9.442;2023-01-15T19:57:42;4.50;;;2.10;;
9827;SDS011;4953;48.952;9.442;2023-01-15T20:00:12;3.97;;;2.97;;
9827;SDS011;4953;48.952;9.442;2023-01-15T20:02:41;3.30;;;2.30;;
9827;SDS011;4953;48.952;9.442;2023-01-15T20:05:08;15.27;;;6.43;;
9827;SDS011;4953;48.952;9.442;2023-01-15T20:07:36;6.27;;;4.47;;
9827;SDS011;4953;48.952;9.442;2023-01-15T20:10:05;4.80;;;2.97;;
9827;SDS011;4953;48.952;9.442;2023-01-15T20:12:34;3.83;;;3.10;;
9827;SDS011;4953;48.952;9.442;2023-01-15T20:15:21;9.30;;;3.67;;
9827;SDS011;4953;48.952;9.442;2023-01-15T20:17:48;8.73;;;5.73;;
9827;SDS011;4953;48.952;9.442;2023-01-15T20:20:15;9.20;;;5.20;;
9827;SDS011;4953;48.952;9.442;2023-01-15T20:22:42;6.87;;;3.93;;
9827;SDS011;4953;48.952;9.442;2023-01-15T20:25:10;7.17;;;4.47;;
9827;SDS011;4953;48.952;9.442;2023-01-15T20:27:37;5.87;;;4.33;;
9827;SDS011;4953;48.952;9.442;2023-01-15T20:30:06;7.87;;;4.80;;
9827;SDS011;4953;48.952;9.442;2023-01-15T20:32:35;8.00;;;4.63;;
9827;SDS011;4953;48.952;9.442;2023-01-15T20:35:03;11.53;;;6.87;;
9827;SDS011;4953;48.952;9.442;2023-01-15T20:37:31;9.20;;;5.70;;
9827;SDS011;4953;48.952;9.442;2023-01-15T20:39:58;9.43;;;5.17;;
9827;SDS011;4953;48.952;9.442;2023-01-15T20:42:26;9.13;;;5.00;;
9827;SDS011;4953;48.952;9.442;2023-01-15T20:45:11;11.50;;;6.23;;
9827;SDS011;4953;48.952;9.442;2023-01-15T20:47:38;14.23;;;7.33;;
9827;SDS011;4953;48.952;9.442;2023-01-15T20:50:25;8.77;;;3.90;;
9827;SDS011;4953;48.952;9.442;2023-01-15T20:52:54;3.80;;;2.60;;
9827;SDS011;4953;48.952;9.442;2023-01-15T20:55:22;4.83;;;2.67;;
9827;SDS011;4953;48.952;9.442;2023-01-15T20:57:55;4.87;;;2.20;;
9827;SDS011;4953;48.952;9.442;2023-01-15T21:00:22;4.13;;;2.70;;
9827;SDS011;4953;48.952;9.442;2023-01-15T21:02:49;5.00;;;3.30;;